Time;durP1;ratioP1;P1;durP2;ratioP2;P2;SDS_P1;SDS_P2;PMS_P1;PMS_P2;Temp;Humidity;BMP_temperature;BMP_pressure;BME280_temperature;BME280_humidity;BME280_pressure;Samples;Min_cycle;Max_cycle;Signal;HPM_P1;HPM_P2
2023/10/13 00:01:21;;;;;;;6.73;2.03;;;;;;;;;;4995743;28;20456;-71
2023/10/13 00:03:48;;;;;;;5.03;2.33;;;;;;;;;;4994322;28;20543;-71
2023/10/13 00:06:16;;;;;;;3.80;2.30;;;;;;;;;;4993862;28;20841;-71
2023/10/13 00:08:43;;;;;;;5.57;2.03;;;;;;;;;;4986800;28;20468;-71
2023/10/13 00:11:13;;;;;;;3.93;2.10;;;;;;;;;;5004682;28;20540;-71
2023/10/13 00:13:50;;;;;;;3.50;2.10;;;;;;;;;;5006017;28;20825;-69
2023/10/13 00:16:21;;;;;;;5.53;2.77;;;;;;;;;;5011511;28;20447;-71
2023/10/13 00:18:48;;;;;;;4.07;2.10;;;;;;;;;;5003243;28;20440;-71
2023/10/13 00:21:20;;;;;;;5.50;2.90;;;;;;;;;;4996032;28;20980;-71
2023/10/13 00:23:53;;;;;;;3.93;2.07;;;;;;;;;;4994941;28;20529;-71
2023/10/13 00:26:24;;;;;;;5.60;2.20;;;;;;;;;;5001071;28;20931;-71
2023/10/13 00:28:59;;;;;;;3.50;1.80;;;;;;;;;;5001668;28;20518;-70
2023/10/13 00:31:33;;;;;;;3.47;2.20;;;;;;;;;;4983883;28;20526;-70
2023/10/13 00:34:09;;;;;;;3.13;1.77;;;;;;;;;;4996112;28;20461;-71
2023/10/13 00:36:36;;;;;;;3.47;1.67;;;;;;;;;;4993895;28;20453;-71
2023/10/13 00:39:06;;;;;;;3.27;1.67;;;;;;;;;;4994652;28;20441;-70
2023/10/13 00:41:50;;;;;;;2.50;1.40;;;;;;;;;;4993436;28;20468;-71
2023/10/13 00:44:25;;;;;;;4.27;2.13;;;;;;;;;;4998952;28;20457;-72
2023/10/13 00:46:55;;;;;;;3.30;2.50;;;;;;;;;;5007970;28;20444;-72
2023/10/13 00:49:23;;;;;;;4.13;2.07;;;;;;;;;;4994929;28;20445;-71
2023/10/13 00:51:51;;;;;;;2.50;1.40;;;;;;;;;;5007565;28;20821;-70
2023/10/13 00:54:18;;;;;;;7.00;2.00;;;;;;;;;;4994103;28;20476;-72
2023/10/13 00:56:48;;;;;;;4.00;1.90;;;;;;;;;;4993200;28;20469;-71
2023/10/13 00:59:14;;;;;;;5.40;1.77;;;;;;;;;;4994595;28;20441;-72
2023/10/13 01:01:43;;;;;;;3.43;1.97;;;;;;;;;;5000682;28;20540;-72
2023/10/13 01:04:12;;;;;;;4.97;2.00;;;;;;;;;;4998898;28;20476;-71
2023/10/13 01:06:39;;;;;;;6.43;2.70;;;;;;;;;;4992375;28;20820;-71
2023/10/13 01:09:13;;;;;;;12.03;3.13;;;;;;;;;;4994795;28;20821;-71
2023/10/13 01:11:42;;;;;;;3.33;1.87;;;;;;;;;;5009047;28;20444;-71
2023/10/13 01:14:11;;;;;;;6.40;2.60;;;;;;;;;;4995375;28;20467;-72
2023/10/13 01:16:43;;;;;;;3.27;1.93;;;;;;;;;;5002832;28;20478;-70
2023/10/13 01:19:18;;;;;;;2.83;1.70;;;;;;;;;;4997061;28;20453;-70
2023/10/13 01:21:44;;;;;;;3.27;2.10;;;;;;;;;;4994784;28;20472;-72
2023/10/13 01:24:23;;;;;;;2.73;1.57;;;;;;;;;;4989224;28;20556;-70
2023/10/13 01:26:51;;;;;;;2.97;1.80;;;;;;;;;;4990472;28;20465;-72
2023/10/13 01:29:19;;;;;;;5.63;1.97;;;;;;;;;;4988623;28;20445;-72
2023/10/13 01:31:45;;;;;;;4.93;1.83;;;;;;;;;;4988851;28;20472;-72
2023/10/13 01:34:14;;;;;;;11.13;2.30;;;;;;;;;;4994210;28;20527;-72
2023/10/13 01:36:40;;;;;;;2.63;1.50;;;;;;;;;;4992109;28;20959;-71
2023/10/13 01:39:08;;;;;;;3.37;2.03;;;;;;;;;;4991786;28;20802;-71
2023/10/13 01:41:39;;;;;;;2.90;1.60;;;;;;;;;;4993827;28;20453;-71
2023/10/13 01:44:06;;;;;;;5.13;2.30;;;;;;;;;;4999669;28;20563;-72
2023/10/13 01:46:32;;;;;;;3.00;1.87;;;;;;;;;;4983959;28;21000;-72
2023/10/13 01:48:59;;;;;;;3.33;1.50;;;;;;;;;;5004386;28;20460;-71
2023/10/13 01:51:27;;;;;;;4.17;1.77;;;;;;;;;;5000511;28;20453;-71
2023/10/13 01:53:57;;;;;;;3.80;2.20;;;;;;;;;;4991893;28;20563;-71
2023/10/13 01:56:24;;;;;;;2.43;1.43;;;;;;;;;;4989350;28;20464;-72
2023/10/13 01:58:53;;;;;;;4.13;1.77;;;;;;;;;;4990186;28;20566;-71
2023/10/13 02:01:27;;;;;;;5.13;2.20;;;;;;;;;;4974080;28;20477;-71
2023/10/13 02:04:02;;;;;;;3.93;1.40;;;;;;;;;;4993265;28;20512;-71
2023/10/13 02:06:32;;;;;;;5.70;2.10;;;;;;;;;;4992484;28;20942;-72
2023/10/13 02:09:09;;;;;;;8.13;3.83;;;;;;;;;;4991931;28;20815;-71
2023/10/13 02:11:37;;;;;;;2.83;1.63;;;;;;;;;;4995062;28;20425;-71
2023/10/13 02:14:05;;;;;;;2.53;1.73;;;;;;;;;;4992688;28;20473;-71
2023/10/13 02:16:31;;;;;;;2.00;1.40;;;;;;;;;;4999786;28;20443;-71
2023/10/13 02:19:03;;;;;;;6.77;2.50;;;;;;;;;;5007630;28;20456;-71
2023/10/13 02:21:31;;;;;;;4.27;3.00;;;;;;;;;;5002721;28;20886;-72
2023/10/13 02:24:03;;;;;;;3.77;1.97;;;;;;;;;;4996005;28;20923;-72
2023/10/13 02:26:30;;;;;;;4.80;1.80;;;;;;;;;;5003786;28;20503;-72
2023/10/13 02:28:58;;;;;;;4.23;2.00;;;;;;;;;;4998762;28;20444;-72
2023/10/13 02:31:26;;;;;;;3.87;2.73;;;;;;;;;;4999797;28;20487;-71
2023/10/13 02:33:54;;;;;;;3.73;2.27;;;;;;;;;;4996259;28;20658;-71
2023/10/13 02:36:22;;;;;;;2.40;1.67;;;;;;;;;;5004314;28;20443;-71
2023/10/13 02:38:51;;;;;;;4.47;1.80;;;;;;;;;;4998134;28;20462;-71
2023/10/13 02:41:20;;;;;;;4.17;1.97;;;;;;;;;;4992846;28;20627;-71
2023/10/13 02:43:47;;;;;;;5.70;2.70;;;;;;;;;;4990680;28;20515;-72
2023/10/13 02:46:15;;;;;;;4.23;2.33;;;;;;;;;;5003540;28;20460;-71
2023/10/13 02:48:52;;;;;;;3.03;2.00;;;;;;;;;;4999070;28;20452;-72
2023/10/13 02:51:21;;;;;;;3.33;1.70;;;;;;;;;;5000418;28;20457;-71
2023/10/13 02:53:49;;;;;;;4.63;1.77;;;;;;;;;;4998911;28;21083;-71
2023/10/13 02:56:20;;;;;;;2.67;1.83;;;;;;;;;;5006627;28;20483;-71
2023/10/13 02:58:53;;;;;;;2.10;1.50;;;;;;;;;;5001856;28;20440;-71
2023/10/13 03:01:22;;;;;;;3.20;1.50;;;;;;;;;;4995041;28;20530;-72
2023/10/13 03:03:51;;;;;;;5.13;2.93;;;;;;;;;;4989202;28;20517;-70
2023/10/13 03:06:21;;;;;;;3.17;2.10;;;;;;;;;;4991852;28;20480;-70
2023/10/13 03:08:47;;;;;;;2.63;1.70;;;;;;;;;;5001923;28;20462;-70
2023/10/13 03:11:20;;;;;;;2.63;1.60;;;;;;;;;;4995791;28;20451;-71
2023/10/13 03:13:47;;;;;;;2.80;1.83;;;;;;;;;;4995711;28;20486;-70
2023/10/13 03:16:15;;;;;;;4.17;2.13;;;;;;;;;;4997152;28;20472;-71
2023/10/13 03:18:51;;;;;;;3.60;1.73;;;;;;;;;;4999082;28;20464;-70
2023/10/13 03:21:28;;;;;;;4.00;2.30;;;;;;;;;;4994192;28;20522;-70
2023/10/13 03:23:54;;;;;;;5.47;2.10;;;;;;;;;;4992143;28;20481;-71
2023/10/13 03:26:21;;;;;;;2.37;1.70;;;;;;;;;;4992077;28;20440;-73
2023/10/13 03:28:52;;;;;;;3.10;1.60;;;;;;;;;;4991892;28;20912;-70
2023/10/13 03:31:19;;;;;;;3.70;2.00;;;;;;;;;;4990669;28;20461;-71
2023/10/13 03:33:47;;;;;;;5.83;2.20;;;;;;;;;;4999764;28;20475;-70
2023/10/13 03:36:56;;;;;;;3.20;1.87;;;;;;;;;;4992855;28;20461;-70
2023/10/13 03:39:07;;;;;;;2.47;1.37;;;;;;;;;;4991103;28;20437;-69
2023/10/13 03:41:37;;;;;;;2.07;1.40;;;;;;;;;;4991885;28;20476;-70
2023/10/13 03:44:12;;;;;;;3.73;1.73;;;;;;;;;;5008705;28;20520;-70
2023/10/13 03:46:41;;;;;;;4.23;1.80;;;;;;;;;;4991550;28;20468;-72
2023/10/13 03:49:12;;;;;;;3.07;1.90;;;;;;;;;;4991729;28;20540;-70
2023/10/13 03:51:40;;;;;;;5.10;1.80;;;;;;;;;;4991379;28;20485;-70
2023/10/13 03:54:08;;;;;;;1.80;1.30;;;;;;;;;;5002415;28;20467;-70
2023/10/13 03:56:39;;;;;;;3.93;1.67;;;;;;;;;;4999031;28;20908;-71
2023/10/13 03:59:09;;;;;;;2.83;1.70;;;;;;;;;;5011560;28;20479;-71
2023/10/13 04:01:46;;;;;;;6.57;2.00;;;;;;;;;;4998355;28;20480;-71
2023/10/13 04:04:14;;;;;;;3.10;1.53;;;;;;;;;;4996507;28;20491;-71
2023/10/13 04:06:51;;;;;;;3.47;1.47;;;;;;;;;;4998146;28;20464;-71
2023/10/13 04:10:00;;;;;;;2.77;1.83;;;;;;;;;;5000476;28;20424;-72
2023/10/13 04:15:18;;;;;;;3.33;1.40;;;;;;;;;;4997547;28;20459;-72
2023/10/13 04:17:45;;;;;;;2.90;1.87;;;;;;;;;;4996121;28;20439;-70
2023/10/13 04:26:05;;;;;;;3.77;2.50;;;;;;;;;;4993030;28;20481;-71
2023/10/13 04:28:37;;;;;;;4.20;2.30;;;;;;;;;;5007240;28;20452;-71
2023/10/13 04:31:14;;;;;;;2.27;1.50;;;;;;;;;;4991143;28;20536;-71
2023/10/13 04:33:56;;;;;;;4.00;1.83;;;;;;;;;;5002821;28;20892;-71
2023/10/13 04:36:44;;;;;;;3.53;1.97;;;;;;;;;;5008656;28;20440;-71
2023/10/13 04:39:14;;;;;;;4.97;1.70;;;;;;;;;;5002401;28;20445;-71
2023/10/13 04:41:43;;;;;;;3.13;1.60;;;;;;;;;;5008112;28;20486;-70
2023/10/13 04:44:48;;;;;;;5.07;1.83;;;;;;;;;;4994217;28;20477;-69
2023/10/13 04:47:17;;;;;;;2.67;1.67;;;;;;;;;;4985933;28;20441;-71
2023/10/13 04:49:51;;;;;;;3.70;1.97;;;;;;;;;;4994519;28;20564;-71
2023/10/13 04:55:17;;;;;;;2.30;1.53;;;;;;;;;;4994671;28;20862;-70
2023/10/13 04:57:49;;;;;;;3.80;1.77;;;;;;;;;;4975404;28;20426;-70
2023/10/13 05:49:53;;;;;;;5.30;1.90;;;;;;;;;;4979799;28;20499;-68
2023/10/13 05:52:19;;;;;;;4.77;1.63;;;;;;;;;;5007297;28;20539;-68
2023/10/13 06:31:02;;;;;;;2.87;2.03;;;;;;;;;;4934341;29;20512;-68
2023/10/13 06:33:29;;;;;;;2.00;1.10;;;;;;;;;;4933623;29;20472;-68
2023/10/13 06:35:58;;;;;;;4.67;2.07;;;;;;;;;;4962062;28;20496;-68
2023/10/13 06:38:30;;;;;;;3.83;1.80;;;;;;;;;;4992379;28;20465;-68
2023/10/13 06:40:58;;;;;;;4.00;1.77;;;;;;;;;;4997765;28;20477;-68
2023/10/13 06:43:25;;;;;;;4.07;2.80;;;;;;;;;;5000686;28;20461;-68
2023/10/13 06:46:00;;;;;;;5.60;2.07;;;;;;;;;;4994505;28;20959;-66
2023/10/13 06:48:27;;;;;;;4.07;2.43;;;;;;;;;;4993579;28;20459;-68
2023/10/13 06:50:55;;;;;;;3.33;2.00;;;;;;;;;;5004275;28;20460;-68
2023/10/13 06:53:24;;;;;;;3.40;1.80;;;;;;;;;;5005409;28;20475;-70
2023/10/13 06:55:58;;;;;;;3.47;2.17;;;;;;;;;;4996600;28;20457;-69
2023/10/13 06:58:25;;;;;;;5.20;1.77;;;;;;;;;;5008294;28;20457;-68
2023/10/13 07:00:58;;;;;;;3.73;2.00;;;;;;;;;;4992258;28;20480;-69
2023/10/13 07:03:25;;;;;;;4.37;2.40;;;;;;;;;;4981543;28;20469;-68
2023/10/13 07:05:53;;;;;;;4.83;2.33;;;;;;;;;;4993876;28;20457;-68
2023/10/13 07:08:20;;;;;;;3.10;1.93;;;;;;;;;;5007562;28;20455;-68
2023/10/13 07:11:01;;;;;;;2.90;1.60;;;;;;;;;;4991224;28;20511;-68
2023/10/13 07:13:28;;;;;;;6.13;2.23;;;;;;;;;;4990798;28;20500;-68
2023/10/13 07:16:00;;;;;;;3.27;2.30;;;;;;;;;;4987967;28;20468;-68
2023/10/13 07:18:35;;;;;;;4.90;1.90;;;;;;;;;;4998455;28;20460;-68
2023/10/13 07:21:09;;;;;;;3.30;1.87;;;;;;;;;;4992926;28;20499;-68
2023/10/13 07:23:36;;;;;;;2.80;1.70;;;;;;;;;;5000172;28;20538;-69
2023/10/13 07:26:08;;;;;;;5.40;2.50;;;;;;;;;;4998234;28;20543;-68
2023/10/13 07:28:36;;;;;;;3.03;1.70;;;;;;;;;;4995757;28;20456;-68
2023/10/13 07:31:15;;;;;;;5.40;2.27;;;;;;;;;;4992403;28;20457;-69
2023/10/13 07:33:42;;;;;;;3.50;2.33;;;;;;;;;;5005574;28;20550;-68
2023/10/13 07:36:18;;;;;;;3.13;1.70;;;;;;;;;;4992984;28;20441;-68
2023/10/13 07:38:48;;;;;;;5.27;2.33;;;;;;;;;;5006763;28;20535;-68
2023/10/13 07:41:17;;;;;;;3.00;1.70;;;;;;;;;;4996317;28;20904;-68
2023/10/13 07:43:45;;;;;;;3.27;1.90;;;;;;;;;;5001615;28;20472;-68
2023/10/13 07:46:13;;;;;;;3.60;2.17;;;;;;;;;;4995007;28;20499;-68
2023/10/13 07:48:45;;;;;;;4.50;1.83;;;;;;;;;;4996464;28;20484;-69
2023/10/13 07:51:15;;;;;;;2.97;1.83;;;;;;;;;;4997231;28;20436;-68
2023/10/13 07:53:43;;;;;;;8.23;3.00;;;;;;;;;;4995228;28;20476;-68
2023/10/13 07:56:11;;;;;;;7.00;4.27;;;;;;;;;;5000664;28;20463;-68
2023/10/13 07:58:52;;;;;;;4.33;2.10;;;;;;;;;;4997028;28;20479;-68
2023/10/13 08:01:19;;;;;;;3.10;1.70;;;;;;;;;;4995909;28;20474;-69
2023/10/13 08:03:46;;;;;;;4.80;2.13;;;;;;;;;;4977272;28;20457;-68
2023/10/13 08:06:21;;;;;;;3.70;1.90;;;;;;;;;;4989741;28;20441;-68
2023/10/13 08:08:53;;;;;;;2.83;1.57;;;;;;;;;;4995492;28;20460;-69
2023/10/13 08:11:30;;;;;;;3.13;1.90;;;;;;;;;;4989712;28;20480;-69
2023/10/13 08:13:59;;;;;;;3.80;1.83;;;;;;;;;;4996334;28;20467;-69
2023/10/13 08:16:45;;;;;;;2.20;1.50;;;;;;;;;;4992890;28;20481;-69
2023/10/13 08:19:14;;;;;;;3.93;2.33;;;;;;;;;;4997119;28;20460;-68
2023/10/13 08:21:49;;;;;;;4.27;1.90;;;;;;;;;;4996789;28;20484;-68
2023/10/13 08:24:16;;;;;;;3.40;2.10;;;;;;;;;;4994065;28;20493;-68
2023/10/13 08:27:15;;;;;;;3.17;1.67;;;;;;;;;;4992594;28;20460;-69
2023/10/13 08:32:45;;;;;;;4.20;2.90;;;;;;;;;;4995884;28;20463;-68
2023/10/13 08:35:33;;;;;;;3.60;1.60;;;;;;;;;;4992163;28;20548;-69
2023/10/13 08:38:04;;;;;;;4.27;2.20;;;;;;;;;;4986564;28;21059;-69
2023/10/13 08:43:17;;;;;;;7.07;2.73;;;;;;;;;;4994846;28;20447;-68
2023/10/13 08:45:53;;;;;;;4.60;1.67;;;;;;;;;;4994347;28;20480;-68
2023/10/13 08:48:26;;;;;;;4.33;1.80;;;;;;;;;;4979844;28;20538;-69
2023/10/13 08:50:55;;;;;;;4.63;2.00;;;;;;;;;;4995338;28;20461;-69
2023/10/13 08:53:31;;;;;;;3.10;1.93;;;;;;;;;;5000574;28;20821;-69
2023/10/13 08:56:05;;;;;;;3.37;2.03;;;;;;;;;;4999579;28;20457;-69
2023/10/13 09:01:34;;;;;;;5.53;1.63;;;;;;;;;;5000204;28;20468;-68
2023/10/13 09:04:21;;;;;;;2.97;1.50;;;;;;;;;;4996781;28;20480;-69
2023/10/13 09:07:00;;;;;;;5.60;1.90;;;;;;;;;;4996004;28;20440;-68
2023/10/13 09:09:26;;;;;;;3.97;1.20;;;;;;;;;;5005073;28;20502;-69
2023/10/13 09:12:07;;;;;;;2.50;1.90;;;;;;;;;;5005213;28;20499;-68
2023/10/13 09:14:33;;;;;;;2.83;1.53;;;;;;;;;;4992456;28;20485;-69
2023/10/13 09:17:11;;;;;;;3.00;1.57;;;;;;;;;;4994453;28;20467;-69
2023/10/13 09:19:49;;;;;;;4.93;1.37;;;;;;;;;;4995860;28;20429;-68
2023/10/13 09:22:27;;;;;;;4.97;1.93;;;;;;;;;;4994668;28;20531;-69
2023/10/13 09:24:58;;;;;;;3.20;1.83;;;;;;;;;;5000313;28;20934;-68
2023/10/13 09:27:26;;;;;;;3.13;1.63;;;;;;;;;;5002278;28;20502;-69
2023/10/13 09:29:56;;;;;;;3.00;1.47;;;;;;;;;;5011258;28;20444;-69
2023/10/13 09:32:24;;;;;;;4.00;1.37;;;;;;;;;;4999179;28;20452;-68
2023/10/13 09:34:53;;;;;;;2.50;1.30;;;;;;;;;;4996709;28;20830;-68
2023/10/13 09:37:20;;;;;;;5.17;1.90;;;;;;;;;;4993013;28;20604;-69
2023/10/13 09:39:52;;;;;;;4.30;1.77;;;;;;;;;;4990127;28;20795;-68
2023/10/13 09:42:18;;;;;;;2.83;1.70;;;;;;;;;;4995057;28;20476;-68
2023/10/13 09:44:51;;;;;;;3.70;1.90;;;;;;;;;;4994203;28;20511;-69
2023/10/13 09:47:24;;;;;;;4.20;1.60;;;;;;;;;;4992552;28;20461;-69
2023/10/13 09:49:57;;;;;;;4.50;2.03;;;;;;;;;;4993590;28;20472;-69
2023/10/13 09:52:25;;;;;;;4.17;2.57;;;;;;;;;;4992181;28;20967;-70
2023/10/13 09:54:59;;;;;;;2.63;1.23;;;;;;;;;;5010146;28;20539;-67
2023/10/13 09:57:34;;;;;;;2.57;1.53;;;;;;;;;;4989334;28;20853;-69
2023/10/13 10:00:06;;;;;;;2.90;1.70;;;;;;;;;;4996381;28;20640;-67
2023/10/13 10:02:33;;;;;;;2.93;1.90;;;;;;;;;;4988395;28;20999;-68
2023/10/13 10:05:13;;;;;;;2.53;1.60;;;;;;;;;;5008294;28;20483;-67
2023/10/13 10:07:39;;;;;;;3.10;1.70;;;;;;;;;;5006089;28;20447;-68
2023/10/13 10:10:08;;;;;;;4.00;1.77;;;;;;;;;;5001361;28;20502;-68
2023/10/13 10:12:39;;;;;;;2.73;1.40;;;;;;;;;;4996517;28;20446;-68
2023/10/13 10:15:11;;;;;;;5.10;1.60;;;;;;;;;;4990130;28;21003;-67
2023/10/13 10:17:42;;;;;;;3.53;1.70;;;;;;;;;;4997490;28;21004;-68
2023/10/13 10:20:20;;;;;;;2.97;1.10;;;;;;;;;;5000247;28;20434;-68
2023/10/13 10:22:59;;;;;;;2.73;1.97;;;;;;;;;;4999988;28;20587;-68
2023/10/13 10:25:38;;;;;;;3.20;1.30;;;;;;;;;;4994146;28;20488;-67
2023/10/13 10:28:06;;;;;;;4.07;1.70;;;;;;;;;;4993201;28;20444;-67
2023/10/13 10:30:34;;;;;;;3.83;1.93;;;;;;;;;;5006183;28;20471;-68
2023/10/13 10:33:07;;;;;;;3.13;1.60;;;;;;;;;;5002503;28;20884;-68
2023/10/13 10:35:35;;;;;;;4.10;1.53;;;;;;;;;;4994155;28;20991;-68
2023/10/13 10:38:15;;;;;;;4.60;1.50;;;;;;;;;;4991416;28;20488;-68
2023/10/13 10:40:53;;;;;;;4.50;1.67;;;;;;;;;;4993206;28;20433;-68
2023/10/13 10:43:20;;;;;;;3.70;2.13;;;;;;;;;;4995304;28;20520;-69
2023/10/13 10:45:48;;;;;;;3.80;1.90;;;;;;;;;;5001124;28;20457;-68
2023/10/13 10:48:18;;;;;;;2.57;1.50;;;;;;;;;;4994791;28;20461;-68
2023/10/13 10:50:54;;;;;;;7.00;1.60;;;;;;;;;;5002233;28;20452;-68
2023/10/13 10:53:32;;;;;;;2.20;1.30;;;;;;;;;;4994865;28;20503;-68
2023/10/13 10:56:08;;;;;;;3.10;1.40;;;;;;;;;;4990819;28;20565;-68
2023/10/13 10:58:43;;;;;;;3.73;2.10;;;;;;;;;;4997367;28;20482;-67
2023/10/13 11:01:11;;;;;;;2.80;1.40;;;;;;;;;;5005675;28;20448;-67
2023/10/13 11:03:41;;;;;;;2.87;1.67;;;;;;;;;;5002375;28;20479;-68
2023/10/13 11:06:18;;;;;;;5.73;1.73;;;;;;;;;;4987203;28;21028;-68
2023/10/13 11:08:51;;;;;;;3.90;1.23;;;;;;;;;;5004124;28;20467;-68
2023/10/13 11:11:21;;;;;;;4.30;1.70;;;;;;;;;;4992440;28;20449;-68
2023/10/13 11:13:51;;;;;;;2.50;1.40;;;;;;;;;;4991804;28;20473;-67
2023/10/13 11:16:23;;;;;;;5.00;2.23;;;;;;;;;;4983141;28;20456;-69
2023/10/13 11:19:02;;;;;;;4.43;1.77;;;;;;;;;;4992715;28;20551;-68
2023/10/13 11:21:32;;;;;;;4.97;2.13;;;;;;;;;;5002956;28;20884;-69
2023/10/13 11:24:08;;;;;;;4.30;1.97;;;;;;;;;;4998862;28;20574;-68
2023/10/13 11:26:36;;;;;;;3.93;1.70;;;;;;;;;;4994929;28;20928;-68
2023/10/13 11:29:10;;;;;;;2.83;1.67;;;;;;;;;;4992719;28;20456;-67
2023/10/13 11:31:38;;;;;;;3.60;1.60;;;;;;;;;;4994758;28;20473;-67
2023/10/13 11:34:05;;;;;;;2.47;1.40;;;;;;;;;;4997439;28;20508;-68
2023/10/13 11:36:35;;;;;;;4.47;1.93;;;;;;;;;;4991599;28;20551;-66
2023/10/13 11:39:05;;;;;;;8.20;3.93;;;;;;;;;;4992062;28;20448;-68
2023/10/13 11:41:37;;;;;;;3.60;2.03;;;;;;;;;;5005973;28;20448;-67
2023/10/13 11:44:23;;;;;;;2.30;1.57;;;;;;;;;;4994055;28;20473;-68
2023/10/13 11:46:55;;;;;;;3.70;1.97;;;;;;;;;;4992985;28;20436;-67
2023/10/13 11:49:36;;;;;;;6.90;1.90;;;;;;;;;;4988536;28;20457;-66
2023/10/13 11:52:19;;;;;;;2.87;1.63;;;;;;;;;;4988465;28;20518;-68
2023/10/13 11:54:46;;;;;;;3.67;1.80;;;;;;;;;;4985220;28;20476;-67
2023/10/13 11:57:16;;;;;;;2.70;1.70;;;;;;;;;;4993724;28;20457;-66
2023/10/13 11:59:53;;;;;;;3.70;1.60;;;;;;;;;;5000483;28;20444;-68
2023/10/13 12:05:11;;;;;;;3.97;1.63;;;;;;;;;;4993809;28;20460;-68
2023/10/13 12:07:48;;;;;;;3.60;2.00;;;;;;;;;;4987094;28;20796;-67
2023/10/13 12:10:33;;;;;;;4.27;2.53;;;;;;;;;;4991355;28;20456;-67
2023/10/13 12:13:05;;;;;;;6.33;2.50;;;;;;;;;;4993294;28;20477;-71
2023/10/13 12:15:36;;;;;;;2.30;1.57;;;;;;;;;;4989150;28;20497;-71
2023/10/13 12:18:06;;;;;;;5.50;2.00;;;;;;;;;;4992679;28;20518;-70
2023/10/13 12:20:35;;;;;;;3.13;1.93;;;;;;;;;;4993199;28;20974;-70
2023/10/13 12:23:20;;;;;;;3.40;1.93;;;;;;;;;;4992696;28;21039;-70
2023/10/13 12:26:00;;;;;;;6.33;2.20;;;;;;;;;;4989164;28;20441;-70
2023/10/13 12:28:28;;;;;;;3.27;2.27;;;;;;;;;;4983305;28;20459;-70
2023/10/13 12:30:57;;;;;;;2.43;1.97;;;;;;;;;;4996584;28;20452;-71
2023/10/13 12:33:36;;;;;;;6.93;2.07;;;;;;;;;;4996356;28;20455;-70
2023/10/13 12:36:06;;;;;;;3.50;1.43;;;;;;;;;;4995681;28;20520;-71
2023/10/13 12:38:51;;;;;;;2.90;1.63;;;;;;;;;;4984954;28;20511;-70
2023/10/13 12:49:49;;;;;;;2.23;1.50;;;;;;;;;;4993591;28;20529;-73
2023/10/13 12:52:19;;;;;;;2.83;2.20;;;;;;;;;;4995953;28;20472;-71
2023/10/13 12:54:58;;;;;;;4.17;2.27;;;;;;;;;;5000508;28;20861;-70
2023/10/13 12:57:25;;;;;;;8.77;2.33;;;;;;;;;;4997139;28;20437;-70
2023/10/13 12:59:53;;;;;;;2.83;1.37;;;;;;;;;;4995032;28;20977;-70
2023/10/13 13:02:20;;;;;;;3.30;1.73;;;;;;;;;;4992568;28;20480;-70
2023/10/13 13:04:51;;;;;;;4.33;1.90;;;;;;;;;;4997341;28;20487;-71
2023/10/13 13:07:18;;;;;;;3.50;2.13;;;;;;;;;;4992821;28;20962;-70
2023/10/13 13:09:45;;;;;;;3.30;1.83;;;;;;;;;;4995764;28;20460;-70
2023/10/13 13:12:13;;;;;;;3.40;2.00;;;;;;;;;;4995129;28;20451;-70
2023/10/13 13:14:45;;;;;;;3.60;2.20;;;;;;;;;;4998837;28;20551;-70
2023/10/13 13:17:12;;;;;;;4.17;1.97;;;;;;;;;;4999470;28;20901;-70
2023/10/13 13:19:40;;;;;;;6.37;2.63;;;;;;;;;;5001558;28;20463;-70
2023/10/13 13:22:11;;;;;;;2.40;1.60;;;;;;;;;;5002180;28;20452;-70
2023/10/13 13:24:43;;;;;;;2.97;1.60;;;;;;;;;;4999079;28;20491;-70
2023/10/13 13:27:13;;;;;;;2.43;2.00;;;;;;;;;;4994284;28;20457;-70
2023/10/13 13:29:41;;;;;;;3.53;1.77;;;;;;;;;;4992904;28;20460;-70
2023/10/13 13:32:18;;;;;;;5.00;3.00;;;;;;;;;;5000939;28;20471;-70
2023/10/13 13:34:54;;;;;;;2.80;1.47;;;;;;;;;;4993030;28;20476;-70
2023/10/13 13:37:21;;;;;;;3.63;1.77;;;;;;;;;;4995174;28;20666;-70
2023/10/13 13:39:49;;;;;;;4.47;1.93;;;;;;;;;;4994006;28;20841;-70
2023/10/13 13:42:18;;;;;;;3.60;2.47;;;;;;;;;;4986854;28;20461;-70
2023/10/13 13:44:47;;;;;;;6.10;2.10;;;;;;;;;;4983676;28;20504;-71
2023/10/13 13:47:14;;;;;;;3.83;2.00;;;;;;;;;;4990766;28;20445;-70
2023/10/13 13:49:46;;;;;;;5.27;2.33;;;;;;;;;;4994255;28;20472;-71
2023/10/13 13:52:17;;;;;;;4.97;2.50;;;;;;;;;;4995242;28;20799;-70
2023/10/13 13:54:47;;;;;;;3.20;2.20;;;;;;;;;;5003051;28;20535;-71
2023/10/13 13:57:14;;;;;;;3.03;1.80;;;;;;;;;;4994455;28;20504;-70
2023/10/13 13:59:45;;;;;;;2.53;1.57;;;;;;;;;;5000078;28;20478;-70
2023/10/13 14:02:20;;;;;;;5.30;2.77;;;;;;;;;;5002785;28;20500;-70
2023/10/13 14:04:50;;;;;;;4.77;1.80;;;;;;;;;;5005097;28;20827;-71
2023/10/13 14:07:19;;;;;;;4.53;2.00;;;;;;;;;;4994412;28;20464;-71
2023/10/13 14:09:51;;;;;;;5.97;1.77;;;;;;;;;;5004731;28;20448;-70
2023/10/13 14:12:29;;;;;;;4.23;2.03;;;;;;;;;;4995662;28;20618;-71
2023/10/13 14:14:58;;;;;;;3.53;1.80;;;;;;;;;;4993712;28;20496;-71
2023/10/13 14:17:28;;;;;;;3.37;1.70;;;;;;;;;;4993249;28;20444;-70
2023/10/13 14:19:56;;;;;;;3.47;1.60;;;;;;;;;;4994825;28;20456;-72
2023/10/13 14:22:25;;;;;;;3.37;1.57;;;;;;;;;;4997949;28;20447;-69
2023/10/13 14:24:54;;;;;;;1.90;1.50;;;;;;;;;;4987663;28;20598;-70
2023/10/13 14:27:23;;;;;;;2.30;1.77;;;;;;;;;;4982359;28;20491;-69
2023/10/13 14:29:52;;;;;;;3.50;1.73;;;;;;;;;;4992789;28;20536;-69
2023/10/13 14:32:24;;;;;;;2.60;1.70;;;;;;;;;;4974499;28;20449;-71
2023/10/13 14:34:56;;;;;;;5.33;1.80;;;;;;;;;;4977838;28;20476;-69
2023/10/13 14:37:28;;;;;;;2.60;1.47;;;;;;;;;;4959095;28;20456;-70
2023/10/13 14:39:57;;;;;;;2.37;1.53;;;;;;;;;;4987264;28;20498;-70
2023/10/13 14:42:25;;;;;;;3.83;1.77;;;;;;;;;;4990680;28;20507;-69
2023/10/13 14:44:56;;;;;;;5.20;2.43;;;;;;;;;;4992087;28;20472;-70
2023/10/13 14:47:24;;;;;;;2.77;1.70;;;;;;;;;;4975458;28;20448;-69
2023/10/13 14:49:54;;;;;;;3.10;1.80;;;;;;;;;;4986926;28;20456;-70
2023/10/13 14:52:21;;;;;;;3.60;1.70;;;;;;;;;;4992977;28;20469;-71
2023/10/13 14:54:54;;;;;;;4.50;2.30;;;;;;;;;;4991446;28;20483;-70
2023/10/13 14:57:24;;;;;;;2.70;1.67;;;;;;;;;;4992916;28;20939;-69
2023/10/13 14:59:51;;;;;;;3.63;1.53;;;;;;;;;;4993123;28;20456;-70
2023/10/13 15:02:18;;;;;;;3.70;1.90;;;;;;;;;;5003382;28;20486;-69
2023/10/13 15:04:48;;;;;;;2.77;1.60;;;;;;;;;;4989792;28;20929;-69
2023/10/13 15:07:17;;;;;;;2.40;1.43;;;;;;;;;;4992841;28;20453;-69
2023/10/13 15:09:45;;;;;;;2.40;1.70;;;;;;;;;;5006762;28;20506;-69
2023/10/13 15:12:12;;;;;;;3.77;1.60;;;;;;;;;;5000432;28;20452;-70
2023/10/13 15:14:42;;;;;;;4.40;1.60;;;;;;;;;;5008486;28;20225;-68
2023/10/13 15:17:15;;;;;;;1.90;1.03;;;;;;;;;;4985910;28;20194;-68
2023/10/13 15:19:43;;;;;;;3.87;1.50;;;;;;;;;;4993524;28;20197;-69
2023/10/13 15:22:16;;;;;;;7.37;2.00;;;;;;;;;;4981026;28;20683;-70
2023/10/13 15:24:59;;;;;;;3.90;1.60;;;;;;;;;;4979014;28;20295;-69
2023/10/13 15:27:28;;;;;;;2.70;1.60;;;;;;;;;;4990243;28;20680;-71
2023/10/13 15:29:59;;;;;;;1.90;1.23;;;;;;;;;;4973785;28;20554;-69
2023/10/13 15:35:19;;;;;;;2.13;1.50;;;;;;;;;;4965005;28;20224;-70
2023/10/13 15:37:48;;;;;;;2.50;1.60;;;;;;;;;;4992826;28;20205;-69
2023/10/13 15:40:16;;;;;;;3.42;1.90;;;;;;;;;;4992157;28;20235;-69
2023/10/13 15:42:44;;;;;;;2.20;1.60;;;;;;;;;;4992715;28;20213;-71
2023/10/13 15:45:17;;;;;;;2.75;1.58;;;;;;;;;;4992644;28;20692;-70
2023/10/13 15:47:46;;;;;;;2.95;1.48;;;;;;;;;;4992547;28;20275;-71
2023/10/13 15:50:18;;;;;;;2.50;1.70;;;;;;;;;;4992271;28;20205;-70
2023/10/13 15:52:46;;;;;;;2.65;1.90;;;;;;;;;;4992422;28;20185;-70
2023/10/13 15:55:14;;;;;;;2.38;1.52;;;;;;;;;;4989989;28;20591;-70
2023/10/13 15:57:43;;;;;;;3.92;1.92;;;;;;;;;;5008482;28;20205;-69
2023/10/13 16:00:23;;;;;;;4.43;2.60;;;;;;;;;;5002796;28;20205;-70
2023/10/13 16:02:51;;;;;;;3.50;2.08;;;;;;;;;;4999977;28;20201;-70
2023/10/13 16:05:19;;;;;;;4.00;1.73;;;;;;;;;;4983728;28;20214;-69
2023/10/13 16:07:46;;;;;;;2.72;1.52;;;;;;;;;;5004103;28;20201;-69
2023/10/13 16:10:14;;;;;;;3.45;1.90;;;;;;;;;;5004939;28;20209;-70
2023/10/13 16:12:44;;;;;;;3.33;1.70;;;;;;;;;;4998547;28;20211;-70
2023/10/13 16:15:14;;;;;;;4.45;1.50;;;;;;;;;;5004960;28;20217;-70
2023/10/13 16:17:41;;;;;;;4.63;1.47;;;;;;;;;;4997031;28;20207;-70
2023/10/13 16:20:15;;;;;;;3.50;1.87;;;;;;;;;;5006801;28;20207;-70
2023/10/13 16:22:44;;;;;;;3.20;1.63;;;;;;;;;;4997532;28;20201;-69
2023/10/13 16:25:12;;;;;;;4.13;2.60;;;;;;;;;;4990747;28;20300;-69
2023/10/13 16:27:41;;;;;;;4.50;2.07;;;;;;;;;;4988660;28;20456;-69
2023/10/13 16:30:15;;;;;;;3.53;1.60;;;;;;;;;;4992215;28;20483;-69
2023/10/13 16:32:45;;;;;;;2.57;1.77;;;;;;;;;;5006188;28;20485;-69
2023/10/13 16:35:16;;;;;;;2.50;1.83;;;;;;;;;;4995915;28;20972;-69
2023/10/13 16:37:50;;;;;;;2.77;1.93;;;;;;;;;;4994736;28;20500;-75
2023/10/13 16:40:19;;;;;;;3.40;1.70;;;;;;;;;;4996119;28;20454;-75
2023/10/13 16:42:47;;;;;;;3.37;1.90;;;;;;;;;;4997120;28;20461;-73
2023/10/13 16:45:20;;;;;;;2.83;2.10;;;;;;;;;;4978454;28;20485;-71
2023/10/13 16:47:47;;;;;;;3.60;2.00;;;;;;;;;;4995081;28;20446;-72
2023/10/13 16:50:16;;;;;;;4.50;2.23;;;;;;;;;;4995540;28;20445;-72
2023/10/13 16:52:45;;;;;;;3.73;2.23;;;;;;;;;;4991577;28;20476;-71
2023/10/13 16:55:13;;;;;;;2.70;2.07;;;;;;;;;;4983550;28;20471;-71
2023/10/13 16:57:40;;;;;;;3.90;2.67;;;;;;;;;;4994977;28;20909;-71
2023/10/13 17:00:11;;;;;;;3.10;2.00;;;;;;;;;;5007757;28;20812;-71
2023/10/13 17:02:41;;;;;;;2.87;1.70;;;;;;;;;;4995630;28;20544;-71
2023/10/13 17:05:09;;;;;;;2.87;2.00;;;;;;;;;;4991259;28;20520;-71
2023/10/13 17:07:36;;;;;;;3.93;2.40;;;;;;;;;;4993242;28;20464;-72